Time;durP1;ratioP1;P1;durP2;ratioP2;P2;SDS_P1;SDS_P2;PMS_P1;PMS_P2;Temp;Humidity;BMP_temperature;BMP_pressure;BME280_temperature;BME280_humidity;BME280_pressure;Samples;Min_cycle;Max_cycle;Signal;HPM_P1;HPM_P2
2021/06/20 00:00:30;;;;;;;6.88;1.87;;;;;;;23.31;54.66;99458.47;317010;105;2328910;-71
2021/06/20 00:01:55;;;;;;;8.67;1.97;;;;;;;23.29;54.77;99457.97;380038;105;1960875;-71
2021/06/20 00:03:07;;;;;;;8.19;1.94;;;;;;;23.37;54.76;99456.49;363300;104;2073076;-72
2021/06/20 00:04:14;;;;;;;4.38;1.56;;;;;;;23.24;54.85;99458.03;318092;108;2230062;-73
2021/06/20 00:05:35;;;;;;;5.09;1.55;;;;;;;23.33;54.96;99450.73;395083;104;1964953;-70
2021/06/20 00:06:44;;;;;;;6.28;1.82;;;;;;;23.20;54.97;99456.97;379488;105;1961983;-73
2021/06/20 00:08:00;;;;;;;6.29;1.62;;;;;;;23.29;55.00;99457.12;376237;108;1986992;-72
2021/06/20 00:09:08;;;;;;;6.46;1.83;;;;;;;23.16;55.03;99464.20;356299;113;1962057;-73
2021/06/20 00:10:34;;;;;;;9.32;2.57;;;;;;;23.14;55.11;99455.39;354470;113;1961965;-72
2021/06/20 00:11:48;;;;;;;5.64;1.86;;;;;;;23.23;55.20;99456.37;385614;106;1986873;-71
2021/06/20 00:12:56;;;;;;;7.38;1.89;;;;;;;23.08;55.31;99460.15;363740;109;1962050;-72
2021/06/20 00:14:09;;;;;;;5.07;1.63;;;;;;;23.18;55.40;99468.30;397102;104;1985963;-70
2021/06/20 00:15:17;;;;;;;6.66;1.72;;;;;;;23.04;55.44;99456.33;379930;105;1961045;-73
2021/06/20 00:16:29;;;;;;;6.04;1.35;;;;;;;23.14;55.61;99463.66;395042;104;1986025;-72
2021/06/20 00:17:35;;;;;;;6.21;2.04;;;;;;;22.99;55.64;99457.20;376442;105;1964037;-73
2021/06/20 00:18:49;;;;;;;7.36;1.90;;;;;;;23.09;55.76;99460.97;380050;108;1986993;-72
2021/06/20 00:19:54;;;;;;;7.31;1.63;;;;;;;22.96;55.79;99465.20;361225;111;1964068;-74
2021/06/20 00:21:19;;;;;;;5.44;1.86;;;;;;;22.95;55.82;99463.58;360753;111;1961967;-73
2021/06/20 00:22:32;;;;;;;7.53;1.55;;;;;;;23.03;55.95;99469.29;393828;104;1985991;-73
2021/06/20 00:23:44;;;;;;;6.42;1.71;;;;;;;22.99;56.15;99459.95;374811;106;2990022;-73
2021/06/20 00:25:08;;;;;;;6.57;1.77;;;;;;;22.87;56.05;99465.04;366920;109;1970035;-73
2021/06/20 00:26:15;;;;;;;5.90;1.74;;;;;;;22.86;56.16;99460.63;366271;107;1961981;-73
2021/06/20 00:27:21;;;;;;;6.88;1.46;;;;;;;22.83;56.15;99461.22;298159;107;2373019;-72
2021/06/20 00:28:33;;;;;;;3.82;1.60;;;;;;;22.93;56.31;99460.29;382125;106;2070881;-73
2021/06/20 00:29:49;;;;;;;5.86;1.63;;;;;;;22.92;56.45;99453.16;392396;104;2004051;-73
2021/06/20 00:31:14;;;;;;;4.64;1.60;;;;;;;22.79;56.37;99454.66;371393;107;1962023;-72
2021/06/20 00:32:20;;;;;;;3.47;1.29;;;;;;;22.77;56.49;99465.95;374212;106;1965072;-71
2021/06/20 00:33:26;;;;;;;4.78;1.32;;;;;;;22.77;56.44;99457.70;371130;107;1962018;-72
2021/06/20 00:34:38;;;;;;;8.06;1.85;;;;;;;22.87;56.46;99462.28;330499;104;2434975;-72
2021/06/20 00:35:44;;;;;;;7.52;1.72;;;;;;;22.68;56.52;99453.11;319901;105;2228874;-71
2021/06/20 00:36:56;;;;;;;10.38;1.71;;;;;;;22.83;56.68;99466.72;393142;104;1986969;-73
2021/06/20 00:38:02;;;;;;;3.45;1.76;;;;;;;22.68;56.76;99470.47;375538;107;1961947;-73
2021/06/20 00:39:14;;;;;;;5.33;1.83;;;;;;;22.78;56.90;99466.77;380544;104;3015022;-73
2021/06/20 00:40:21;;;;;;;5.54;1.99;;;;;;;22.66;56.90;99469.94;319604;107;2235908;-73
2021/06/20 00:41:34;;;;;;;6.08;1.45;;;;;;;22.75;56.92;99468.17;386582;106;1971945;-73
2021/06/20 00:42:41;;;;;;;5.91;1.74;;;;;;;22.62;56.93;99463.36;366320;109;1960672;-73
2021/06/20 00:44:04;;;;;;;10.69;1.96;;;;;;;22.61;56.99;99467.23;361674;109;1960834;-73
2021/06/20 00:45:20;;;;;;;6.17;1.73;;;;;;;22.68;57.12;99473.23;393016;104;1984693;-73
2021/06/20 00:46:28;;;;;;;6.84;1.71;;;;;;;22.56;57.11;99470.84;315670;106;2278069;-72
2021/06/20 00:47:42;;;;;;;6.48;1.51;;;;;;;22.66;57.31;99474.63;394296;104;1986054;-72
2021/06/20 00:48:48;;;;;;;7.82;2.02;;;;;;;22.53;57.28;99478.88;344793;107;2865958;-73
2021/06/20 00:50:15;;;;;;;5.59;1.95;;;;;;;22.52;57.40;99485.47;369121;107;1962024;-73
2021/06/20 00:51:27;;;;;;;5.23;2.09;;;;;;;22.61;57.53;99484.56;388734;106;1986028;-72
2021/06/20 00:52:36;;;;;;;6.54;1.66;;;;;;;22.50;57.55;99482.22;370895;107;1961989;-72
2021/06/20 00:53:48;;;;;;;6.55;1.66;;;;;;;22.58;57.66;99478.83;396539;104;1986861;-72
2021/06/20 00:54:56;;;;;;;7.41;1.65;;;;;;;22.47;57.64;99480.05;379281;105;1962065;-71
2021/06/20 00:56:02;;;;;;;4.78;1.53;;;;;;;22.44;57.68;99478.69;380199;105;1962010;-71
2021/06/20 00:57:07;;;;;;;6.32;1.83;;;;;;;22.42;57.73;99475.39;379239;105;1962097;-72
2021/06/20 00:58:26;;;;;;;4.52;1.57;;;;;;;22.53;57.86;99482.45;395483;103;1986994;-72
2021/06/20 00:59:32;;;;;;;6.26;1.75;;;;;;;22.39;57.89;99479.55;341759;106;2627043;-71
2021/06/20 01:00:44;;;;;;;5.52;1.73;;;;;;;22.50;58.06;99476.70;391310;104;2071078;-71
2021/06/20 01:01:49;;;;;;;4.20;1.64;;;;;;;22.33;57.96;99471.61;373775;105;1961996;-72
2021/06/20 01:03:06;;;;;;;5.80;1.70;;;;;;;22.50;58.00;99479.46;381662;104;3066074;-73
2021/06/20 01:04:12;;;;;;;5.68;1.70;;;;;;;22.37;57.97;99479.01;369816;107;1961910;-72
2021/06/20 01:05:26;;;;;;;5.44;1.76;;;;;;;22.49;58.18;99478.64;386207;106;1965945;-70
2021/06/20 01:06:32;;;;;;;9.85;1.68;;;;;;;22.36;58.09;99479.28;369393;108;1969912;-73
2021/06/20 01:07:37;;;;;;;5.13;1.38;;;;;;;22.36;58.07;99479.28;368217;108;1962111;-73
2021/06/20 01:08:50;;;;;;;4.31;1.54;;;;;;;22.47;58.22;99489.12;366407;101;2587958;-73
2021/06/20 01:09:56;;;;;;;4.62;1.47;;;;;;;22.36;58.17;99482.03;349767;104;2010013;-73
2021/06/20 01:11:08;;;;;;;5.85;2.01;;;;;;;22.48;58.20;99487.18;392417;104;1986044;-72
2021/06/20 01:12:15;;;;;;;5.93;1.72;;;;;;;22.35;58.21;99494.16;376694;106;1962074;-73
2021/06/20 01:13:39;;;;;;;4.43;1.70;;;;;;;22.35;58.20;99492.23;370595;108;1963028;-72
2021/06/20 01:14:51;;;;;;;5.09;1.73;;;;;;;22.48;58.18;99496.25;395417;104;1986893;-73
2021/06/20 01:15:57;;;;;;;5.08;1.59;;;;;;;22.39;58.05;99503.50;336749;108;2869003;-74
2021/06/20 01:17:10;;;;;;;6.13;1.56;;;;;;;22.51;58.05;99497.61;393762;104;1967043;-70
2021/06/20 01:18:18;;;;;;;4.39;1.56;;;;;;;22.41;57.98;99495.75;374397;107;1962007;-73
2021/06/20 01:19:42;;;;;;;4.06;1.44;;;;;;;22.42;57.93;99491.91;374753;107;1961995;-70
2021/06/20 01:20:54;;;;;;;5.02;1.26;;;;;;;22.57;57.86;99486.27;333554;107;2192948;-73
2021/06/20 01:22:32;;;;;;;8.11;1.97;;;;;;;22.49;57.79;99494.31;341470;110;1962913;-73
2021/06/20 01:23:45;;;;;;;8.47;2.01;;;;;;;22.62;57.72;99485.38;362080;108;1986016;-70
2021/06/20 01:24:55;;;;;;;5.36;1.74;;;;;;;22.54;57.72;99492.33;330757;111;1988086;-71
2021/06/20 01:26:07;;;;;;;7.36;2.03;;;;;;;22.66;57.58;99486.45;397632;104;1987035;-72
2021/06/20 01:27:12;;;;;;;5.32;1.98;;;;;;;22.57;57.48;99493.69;381444;105;1962024;-72
2021/06/20 01:28:48;;;;;;;8.00;1.48;;;;;;;22.58;57.44;99493.41;342984;107;2568969;-73
2021/06/20 01:29:53;;;;;;;5.02;1.46;;;;;;;22.71;57.49;99497.42;393722;104;1985920;-70
2021/06/20 01:30:59;;;;;;;4.41;1.71;;;;;;;22.61;57.44;99501.09;374934;106;1961985;-71
2021/06/20 01:32:05;;;;;;;7.48;1.74;;;;;;;22.61;57.45;99495.58;376068;106;1961909;-71
2021/06/20 01:33:12;;;;;;;7.67;1.74;;;;;;;22.61;57.39;99497.52;377694;105;1961964;-72
2021/06/20 01:34:18;;;;;;;6.32;1.93;;;;;;;22.63;57.37;99499.99;308126;105;2434985;-73
2021/06/20 01:35:31;;;;;;;5.26;1.52;;;;;;;22.74;57.24;99498.77;392718;104;2071930;-72
2021/06/20 01:36:38;;;;;;;7.33;2.28;;;;;;;22.64;57.20;99493.36;375159;106;1961974;-72
2021/06/20 01:37:52;;;;;;;6.21;1.74;;;;;;;22.76;57.15;99491.05;386482;106;1963081;-72
2021/06/20 01:38:58;;;;;;;4.70;1.93;;;;;;;22.64;57.05;99496.12;370165;108;1970014;-72
2021/06/20 01:40:24;;;;;;;7.77;1.61;;;;;;;22.64;57.04;99498.87;371710;108;1961074;-74
2021/06/20 01:41:36;;;;;;;6.71;1.88;;;;;;;22.73;57.04;99489.70;342858;103;2237062;-72
2021/06/20 01:42:44;;;;;;;5.76;1.64;;;;;;;22.63;56.96;99498.05;367252;106;1961856;-73
2021/06/20 01:43:57;;;;;;;2.83;1.59;;;;;;;22.73;57.05;99497.96;395283;104;1989985;-73
2021/06/20 01:45:05;;;;;;;5.01;1.48;;;;;;;22.64;57.03;99509.88;375082;107;1960963;-73
2021/06/20 01:46:29;;;;;;;5.09;1.81;;;;;;;22.64;57.05;99513.45;377171;106;1961043;-72
2021/06/20 01:47:36;;;;;;;5.78;1.74;;;;;;;22.64;57.06;99507.13;374827;106;1960891;-73
2021/06/20 01:48:48;;;;;;;5.93;1.56;;;;;;;22.74;57.03;99505.09;334470;104;2350832;-73
2021/06/20 01:49:56;;;;;;;6.26;1.74;;;;;;;22.65;56.96;99512.36;342897;107;1975832;-72
2021/06/20 01:51:09;;;;;;;6.71;1.66;;;;;;;22.74;56.92;99516.11;398377;104;1985035;-71
2021/06/20 01:52:23;;;;;;;4.54;1.45;;;;;;;22.64;56.86;99518.14;340944;105;2665982;-72
2021/06/20 01:53:36;;;;;;;6.81;1.59;;;;;;;22.73;56.88;99514.48;402483;101;1986006;-72
2021/06/20 01:54:51;;;;;;;4.00;1.38;;;;;;;22.60;56.93;99513.22;382548;105;1961845;-71
2021/06/20 01:56:03;;;;;;;7.87;1.64;;;;;;;22.70;57.01;99508.72;393419;104;1986069;-71
2021/06/20 01:57:08;;;;;;;7.15;1.97;;;;;;;22.58;56.92;99511.87;375849;107;1963040;-72
2021/06/20 01:58:32;;;;;;;4.64;1.63;;;;;;;22.57;56.97;99508.30;351227;107;1962026;-70
2021/06/20 01:59:45;;;;;;;6.76;1.47;;;;;;;22.65;57.06;99504.10;397376;104;1987029;-72
2021/06/20 02:00:52;;;;;;;6.92;1.74;;;;;;;22.53;56.94;99498.96;375048;107;1964031;-72
2021/06/20 02:01:57;;;;;;;4.16;1.56;;;;;;;22.52;56.92;99497.33;304271;107;2353025;-71
2021/06/20 02:03:11;;;;;;;7.03;2.29;;;;;;;22.50;56.97;99496.80;320237;107;2195985;-72
2021/06/20 02:04:23;;;;;;;6.43;1.71;;;;;;;22.61;57.07;99492.02;331632;109;2194036;-73
2021/06/20 02:05:29;;;;;;;5.08;1.58;;;;;;;22.50;56.95;99496.80;303038;112;2245057;-72
2021/06/20 02:06:41;;;;;;;5.81;1.67;;;;;;;22.61;57.00;99498.33;391425;104;2072126;-72
2021/06/20 02:07:47;;;;;;;5.09;2.03;;;;;;;22.51;56.95;99495.67;375196;105;1963938;-72
2021/06/20 02:09:00;;;;;;;5.53;1.67;;;;;;;22.62;56.98;99490.89;386144;106;1985945;-73
2021/06/20 02:10:12;;;;;;;7.61;1.91;;;;;;;22.50;57.00;99491.28;366725;108;1961964;-73
2021/06/20 02:11:36;;;;;;;5.33;1.97;;;;;;;22.52;56.95;99497.33;327548;110;2666902;-73
2021/06/20 02:12:48;;;;;;;4.76;1.90;;;;;;;22.63;56.92;99498.05;387582;104;2072133;-72
2021/06/20 02:13:54;;;;;;;7.47;2.03;;;;;;;22.53;56.92;99498.96;353788;112;1960853;-72
2021/06/20 02:15:10;;;;;;;8.16;1.74;;;;;;;22.64;56.98;99496.94;394012;103;1985962;-72
2021/06/20 02:16:16;;;;;;;5.75;2.04;;;;;;;22.53;56.89;99492.64;375444;105;1961910;-72
2021/06/20 02:17:27;;;;;;;5.19;1.46;;;;;;;22.54;56.86;99495.09;365695;106;2869963;-72
2021/06/20 02:18:40;;;;;;;4.51;2.11;;;;;;;22.64;56.86;99498.87;393320;104;1985978;-73
2021/06/20 02:19:45;;;;;;;11.98;2.14;;;;;;;22.54;56.80;99495.09;378087;105;1961975;-71
2021/06/20 02:20:58;;;;;;;6.31;2.64;;;;;;;22.67;56.85;99496.34;382974;106;2071947;-72
2021/06/20 02:22:03;;;;;;;7.32;2.11;;;;;;;22.56;56.80;99492.88;368911;109;1962923;-71
2021/06/20 02:23:15;;;;;;;4.67;1.74;;;;;;;22.67;56.84;99492.78;395902;101;2071007;-72
2021/06/20 02:24:21;;;;;;;5.09;1.47;;;;;;;22.55;56.85;99480.23;375535;107;1969992;-71
2021/06/20 02:25:47;;;;;;;6.39;1.73;;;;;;;22.55;56.92;99488.48;334129;107;2789014;-73
2021/06/20 02:27:00;;;;;;;6.24;2.01;;;;;;;22.66;56.96;99480.95;392832;103;1985989;-72
2021/06/20 02:28:05;;;;;;;4.68;2.00;;;;;;;22.54;56.93;99486.83;370761;107;1962001;-71
2021/06/20 02:29:19;;;;;;;5.38;2.09;;;;;;;22.65;57.05;99483.98;392204;103;1987014;-70
2021/06/20 02:30:24;;;;;;;6.30;2.08;;;;;;;22.53;57.00;99484.38;375046;107;1962020;-72
2021/06/20 02:31:49;;;;;;;7.29;2.19;;;;;;;22.51;57.07;99484.66;368384;107;1961944;-71
2021/06/20 02:32:55;;;;;;;8.07;2.07;;;;;;;22.50;57.09;99485.78;368762;109;1962047;-72
2021/06/20 02:34:07;;;;;;;7.49;2.17;;;;;;;22.61;57.22;99484.56;385597;106;2079837;-71
2021/06/20 02:35:14;;;;;;;5.56;2.03;;;;;;;22.48;57.28;99485.24;363958;107;2918199;-70
2021/06/20 02:36:26;;;;;;;5.39;1.59;;;;;;;22.57;57.36;99483.52;394702;104;1973908;-70
2021/06/20 02:37:32;;;;;;;7.06;1.73;;;;;;;22.47;57.37;99485.55;374909;107;1963967;-71
2021/06/20 02:38:55;;;;;;;11.08;2.67;;;;;;;22.44;57.43;99475.94;368835;107;1961995;-72
2021/06/20 02:40:09;;;;;;;5.72;1.58;;;;;;;22.54;57.51;99475.00;397356;104;1985986;-71
2021/06/20 02:41:14;;;;;;;9.10;2.06;;;;;;;22.42;57.48;99475.39;381294;105;1960975;-71
2021/06/20 02:42:27;;;;;;;7.25;2.05;;;;;;;22.53;57.62;99482.45;395836;101;2073028;-73
2021/06/20 02:43:32;;;;;;;10.23;2.16;;;;;;;22.41;57.58;99484.75;377310;106;1962002;-72
2021/06/20 02:44:56;;;;;;;7.04;2.21;;;;;;;22.40;57.62;99483.12;376524;107;1961870;-72
2021/06/20 02:46:11;;;;;;;4.81;1.74;;;;;;;22.48;57.79;99490.75;386137;105;1986037;-72
2021/06/20 02:47:17;;;;;;;5.74;1.89;;;;;;;22.35;57.81;99483.97;355933;108;2943990;-72
2021/06/20 02:48:23;;;;;;;6.97;2.20;;;;;;;22.28;57.85;99477.16;323480;109;2753896;-72
2021/06/20 02:49:37;;;;;;;10.54;2.49;;;;;;;22.46;57.96;99486.64;389303;106;2072129;-72
2021/06/20 02:50:44;;;;;;;6.19;2.09;;;;;;;22.35;57.99;99491.41;342287;107;1982003;-72
2021/06/20 02:51:49;;;;;;;9.86;2.12;;;;;;;22.35;58.06;99485.91;330659;107;2103002;-71
2021/06/20 02:53:01;;;;;;;4.69;1.94;;;;;;;22.48;58.15;99490.75;382222;106;1987035;-72
2021/06/20 02:54:07;;;;;;;7.47;2.27;;;;;;;22.38;58.20;99485.33;360758;109;1962989;-72
2021/06/20 02:55:20;;;;;;;8.16;1.77;;;;;;;22.50;58.26;99487.72;402110;101;1985976;-72
2021/06/20 02:56:27;;;;;;;4.31;1.68;;;;;;;22.39;58.19;99487.80;384653;103;1962645;-70
2021/06/20 02:57:39;;;;;;;9.24;2.33;;;;;;;22.53;58.28;99492.64;390846;103;1986779;-71
2021/06/20 02:58:44;;;;;;;7.21;2.21;;;;;;;22.43;58.19;99481.72;370172;107;1962037;-72
2021/06/20 03:00:09;;;;;;;8.37;2.02;;;;;;;22.43;58.20;99489.97;369475;107;1961936;-72
2021/06/20 03:01:14;;;;;;;6.98;1.71;;;;;;;22.46;58.13;99486.64;368100;107;1964981;-71
2021/06/20 03:02:26;;;;;;;6.62;2.04;;;;;;;22.57;58.14;99483.52;386925;106;1987037;-72
2021/06/20 03:03:32;;;;;;;4.44;1.81;;;;;;;22.48;58.15;99489.93;362758;109;1962078;-73
2021/06/20 03:04:38;;;;;;;5.41;1.83;;;;;;;22.49;58.02;99489.66;355839;109;2893978;-72
2021/06/20 03:05:50;;;;;;;6.14;1.97;;;;;;;22.63;58.05;99484.29;392158;103;1961965;-71
2021/06/20 03:06:55;;;;;;;6.44;2.10;;;;;;;22.54;58.01;99486.02;375079;107;1971004;-71
2021/06/20 03:08:08;;;;;;;6.08;1.90;;;;;;;22.70;58.05;99478.42;393864;104;1986001;-73
2021/06/20 03:09:14;;;;;;;6.53;1.61;;;;;;;22.65;57.89;99482.08;367168;107;2953986;-71
2021/06/20 03:10:20;;;;;;;7.00;1.73;;;;;;;22.71;57.75;99477.34;302218;107;2392056;-72
2021/06/20 03:11:40;;;;;;;7.93;1.96;;;;;;;22.91;57.50;99479.03;390381;104;2072858;-71
2021/06/20 03:12:41;;;;;;;6.79;2.31;;;;;;;22.85;57.31;99472.77;361983;106;1961972;-72
2021/06/20 03:13:53;;;;;;;4.79;2.17;;;;;;;23.03;57.08;99471.23;385963;106;1986059;-72
2021/06/20 03:14:59;;;;;;;4.60;1.91;;;;;;;22.97;56.92;99477.89;365837;109;1964980;-73
2021/06/20 03:16:05;;;;;;;4.27;2.08;;;;;;;23.02;56.73;99475.92;364682;110;1961921;-73
2021/06/20 03:17:18;;;;;;;6.24;1.67;;;;;;;23.19;56.52;99480.13;336745;104;2473989;-73
2021/06/20 03:18:23;;;;;;;6.45;1.92;;;;;;;23.10;56.39;99479.97;363977;106;1962077;-72
2021/06/20 03:19:37;;;;;;;5.70;1.57;;;;;;;23.24;56.33;99482.83;393953;104;1985867;-72
2021/06/20 03:20:43;;;;;;;5.31;1.59;;;;;;;23.13;56.25;99484.89;377501;107;1962017;-72
2021/06/20 03:21:49;;;;;;;7.25;2.13;;;;;;;23.13;56.08;99490.41;366596;105;2961984;-72
2021/06/20 03:23:01;;;;;;;7.27;1.95;;;;;;;23.23;56.04;99482.02;385784;104;2072046;-71
2021/06/20 03:24:07;;;;;;;4.67;1.77;;;;;;;23.11;56.04;99481.60;369349;107;1963976;-73
2021/06/20 03:25:13;;;;;;;5.16;1.63;;;;;;;23.09;56.08;99480.25;370302;107;1961940;-73
2021/06/20 03:26:25;;;;;;;6.30;2.15;;;;;;;23.18;56.13;99489.50;384173;103;2939061;-73
2021/06/20 03:27:30;;;;;;;5.97;1.65;;;;;;;23.06;56.22;99492.67;376007;106;1962076;-72
2021/06/20 03:28:42;;;;;;;5.04;1.95;;;;;;;23.13;56.37;99490.41;389459;104;2072042;-72
2021/06/20 03:29:49;;;;;;;7.02;2.35;;;;;;;23.02;56.44;99502.62;376911;105;1961972;-73
2021/06/20 03:30:55;;;;;;;6.28;1.91;;;;;;;23.01;56.57;99503.75;376177;107;1962005;-72
2021/06/20 03:32:00;;;;;;;5.07;2.25;;;;;;;23.00;56.68;99515.90;377149;105;1962024;-71
2021/06/20 03:33:12;;;;;;;6.31;2.11;;;;;;;23.11;56.84;99511.09;381685;104;2971058;-71
2021/06/20 03:34:18;;;;;;;5.69;2.64;;;;;;;22.97;56.87;99513.70;369554;107;1961975;-72
2021/06/20 03:35:34;;;;;;;5.89;2.17;;;;;;;23.07;57.07;99521.05;363539;104;2528017;-72
2021/06/20 03:36:39;;;;;;;8.32;2.02;;;;;;;22.96;57.10;99520.30;359845;107;1962024;-74
2021/06/20 03:37:45;;;;;;;11.09;2.51;;;;;;;22.96;57.17;99515.64;352409;107;1964002;-73
2021/06/20 03:38:57;;;;;;;8.02;2.91;;;;;;;23.08;57.19;99525.46;401223;101;1986203;-74
2021/06/20 03:40:03;;;;;;;10.10;4.21;;;;;;;22.97;57.06;99527.47;382504;105;1962073;-73
2021/06/20 03:41:16;;;;;;;14.21;4.58;;;;;;;23.11;56.97;99522.11;353297;106;2584005;-73
2021/06/20 03:42:21;;;;;;;4.54;2.34;;;;;;;22.99;56.98;99520.56;324547;108;2105068;-73
2021/06/20 03:43:46;;;;;;;6.72;2.80;;;;;;;23.00;56.99;99524.98;355456;112;1962848;-72
2021/06/20 03:44:58;;;;;;;8.29;2.72;;;;;;;23.11;56.81;99525.69;387560;106;1987095;-74
2021/06/20 03:46:04;;;;;;;6.28;2.89;;;;;;;23.03;56.83;99526.33;367864;107;1962005;-73
2021/06/20 03:47:17;;;;;;;9.05;2.87;;;;;;;23.18;56.67;99531.67;398527;101;2074015;-74
2021/06/20 03:48:23;;;;;;;7.94;2.94;;;;;;;23.09;56.51;99524.34;334478;104;2811032;-73
2021/06/20 03:49:37;;;;;;;8.77;3.44;;;;;;;23.21;56.59;99522.82;393310;104;1987048;-74
2021/06/20 03:50:44;;;;;;;5.80;2.07;;;;;;;23.13;56.62;99525.38;362050;105;1962006;-74
2021/06/20 03:52:08;;;;;;;7.20;2.48;;;;;;;23.15;56.43;99525.91;375530;106;1962048;-73
2021/06/20 03:53:14;;;;;;;6.83;3.02;;;;;;;23.18;56.34;99525.32;352027;109;2840054;-75
2021/06/20 03:54:27;;;;;;;9.14;3.15;;;;;;;23.30;56.19;99511.14;394088;104;1987008;-73
2021/06/20 03:55:39;;;;;;;6.42;2.52;;;;;;;23.20;56.21;99509.32;374035;107;1961955;-73
2021/06/20 03:56:54;;;;;;;8.77;2.50;;;;;;;23.32;56.19;99509.73;376236;106;1986101;-73
2021/06/20 03:58:07;;;;;;;9.27;2.75;;;;;;;23.34;56.22;99506.67;326682;104;2412005;-73
2021/06/20 03:59:12;;;;;;;5.12;2.22;;;;;;;23.23;56.19;99505.97;340623;109;1978853;-73
2021/06/20 04:00:24;;;;;;;7.32;2.37;;;;;;;23.33;56.06;99503.09;393913;104;2070900;-72
2021/06/20 04:01:29;;;;;;;8.23;2.22;;;;;;;23.21;56.12;99500.77;380281;105;1969998;-73
2021/06/20 04:02:42;;;;;;;6.18;1.99;;;;;;;23.34;56.19;99506.67;384595;106;1985967;-73
2021/06/20 04:03:47;;;;;;;5.81;2.28;;;;;;;23.26;56.21;99500.72;362063;109;1961951;-73
2021/06/20 04:05:24;;;;;;;6.52;2.31;;;;;;;23.28;56.22;99492.13;360988;110;1960872;-73
2021/06/20 04:07:23;;;;;;;7.91;2.62;;;;;;;23.44;56.37;99495.52;346004;107;2587955;-73
2021/06/20 04:09:10;;;;;;;6.98;2.15;;;;;;;23.47;56.48;99484.74;375055;101;2568051;-73
2021/06/20 04:11:18;;;;;;;6.73;2.34;;;;;;;23.36;56.51;99482.39;389338;103;1961920;-73
2021/06/20 04:12:24;;;;;;;6.82;2.60;;;;;;;23.34;56.74;99474.44;380559;103;1961871;-74
2021/06/20 04:13:29;;;;;;;8.66;2.62;;;;;;;23.33;56.54;99477.48;376774;106;1961937;-74
2021/06/20 04:14:43;;;;;;;6.27;2.46;;;;;;;23.40;56.82;99483.46;338018;106;2882022;-74
2021/06/20 04:15:48;;;;;;;7.52;2.66;;;;;;;23.29;56.77;99480.02;361081;111;1961951;-73
2021/06/20 04:17:01;;;;;;;7.26;2.98;;;;;;;23.42;56.82;99492.27;382508;105;2071953;-73
2021/06/20 04:18:06;;;;;;;9.86;3.21;;;;;;;23.31;56.73;99491.54;365726;108;1961985;-72
2021/06/20 04:19:30;;;;;;;5.75;2.84;;;;;;;23.33;56.67;99488.50;360154;110;1962090;-72
2021/06/20 04:20:42;;;;;;;8.52;2.88;;;;;;;23.46;56.66;99488.59;401646;101;1985953;-73
2021/06/20 04:21:47;;;;;;;7.94;2.35;;;;;;;23.37;56.56;99484.05;383159;105;1962070;-72
2021/06/20 04:22:59;;;;;;;7.88;2.25;;;;;;;23.50;56.57;99486.09;381879;104;2917993;-74
2021/06/20 04:24:05;;;;;;;5.70;2.29;;;;;;;23.40;56.50;99477.95;361759;108;2933735;-73
2021/06/20 04:25:17;;;;;;;8.42;2.82;;;;;;;23.53;56.41;99482.73;393153;104;2074076;-70
2021/06/20 04:26:23;;;;;;;7.16;2.62;;;;;;;23.40;56.37;99478.77;380218;105;1961991;-73
2021/06/20 04:27:48;;;;;;;6.25;2.48;;;;;;;23.38;56.37;99477.41;307452;105;2363985;-72
2021/06/20 04:29:01;;;;;;;8.01;2.36;;;;;;;23.46;56.33;99483.08;394685;104;1986037;-74
2021/06/20 04:30:07;;;;;;;7.33;2.52;;;;;;;23.33;56.34;99472.78;375994;106;1962838;-74
2021/06/20 04:31:19;;;;;;;10.03;3.47;;;;;;;23.41;56.43;99471.30;391904;104;1961931;-73
2021/06/20 04:32:24;;;;;;;9.24;2.93;;;;;;;23.29;56.46;99471.75;375243;105;1969983;-73
2021/06/20 04:33:49;;;;;;;8.25;2.46;;;;;;;23.27;56.48;99468.45;325630;107;2825045;-74
2021/06/20 04:35:03;;;;;;;6.94;2.19;;;;;;;23.37;56.49;99473.84;397589;104;1964990;-73
2021/06/20 04:36:09;;;;;;;6.05;2.18;;;;;;;23.26;56.44;99475.91;380106;105;1961994;-72
2021/06/20 04:37:21;;;;;;;4.91;2.02;;;;;;;23.36;56.44;99469.43;391984;104;1964133;-73
2021/06/20 04:38:26;;;;;;;7.57;2.62;;;;;;;23.26;56.37;99472.34;370923;106;1969988;-73
2021/06/20 04:39:50;;;;;;;6.90;2.36;;;;;;;23.30;56.34;99473.38;362384;109;1961989;-74
2021/06/20 04:41:05;;;;;;;7.22;2.64;;;;;;;23.43;56.29;99469.89;390614;103;2073040;-73
2021/06/20 04:42:11;;;;;;;5.70;2.11;;;;;;;23.33;56.29;99467.27;372783;105;1961862;-75
2021/06/20 04:44:45;;;;;;;6.32;2.59;;;;;;;23.48;56.46;99469.02;372748;104;1986076;-74
2021/06/20 04:45:51;;;;;;;5.52;2.06;;;;;;;23.37;56.29;99460.06;375221;107;1964022;-72
2021/06/20 04:46:58;;;;;;;5.21;2.36;;;;;;;23.36;56.36;99461.16;377474;107;1962063;-73
2021/06/20 04:48:16;;;;;;;7.99;3.47;;;;;;;23.46;56.38;99449.19;388155;104;1985986;-73
2021/06/20 04:49:21;;;;;;;6.42;2.71;;;;;;;23.34;56.46;99448.79;370383;107;1961988;-73
2021/06/20 04:50:34;;;;;;;4.36;2.30;;;;;;;23.46;56.44;99458.27;385730;106;1985917;-73
2021/06/20 04:51:41;;;;;;;6.62;2.88;;;;;;;23.35;56.22;99448.50;363533;108;1961885;-73
2021/06/20 04:52:47;;;;;;;6.02;2.48;;;;;;;23.34;56.12;99454.30;363809;109;1964035;-73
2021/06/20 04:53:59;;;;;;;5.64;2.32;;;;;;;23.45;55.95;99453.07;389062;104;2073080;-74
2021/06/20 04:55:05;;;;;;;6.73;2.32;;;;;;;23.33;56.02;99452.67;374074;107;1969991;-73
2021/06/20 04:56:17;;;;;;;4.41;2.28;;;;;;;23.43;56.21;99460.81;392024;104;1964955;-74
2021/06/20 04:57:28;;;;;;;5.21;2.49;;;;;;;23.33;55.95;99455.43;363549;106;1961918;-75
2021/06/20 04:58:52;;;;;;;6.59;2.88;;;;;;;23.32;55.86;99449.10;364170;107;2864937;-73
2021/06/20 05:00:02;;;;;;;6.78;2.59;;;;;;;23.33;55.98;99447.16;332869;106;2686925;-73
2021/06/20 05:01:14;;;;;;;5.95;2.81;;;;;;;23.49;55.93;99452.16;394896;104;1984908;-73
2021/06/20 05:02:21;;;;;;;5.16;2.48;;;;;;;23.40;55.84;99450.38;375772;107;1961999;-73
2021/06/20 05:03:28;;;;;;;6.64;2.28;;;;;;;23.41;55.70;99450.06;369319;107;1963900;-72
2021/06/20 05:04:41;;;;;;;5.75;2.52;;;;;;;23.55;55.59;99452.94;345176;106;2150016;-73
2021/06/20 05:05:46;;;;;;;7.28;2.51;;;;;;;23.47;55.48;99451.66;367831;109;1961058;-73
2021/06/20 05:06:52;;;;;;;6.04;2.38;;;;;;;23.51;55.42;99459.33;367608;109;1962854;-73
2021/06/20 05:07:57;;;;;;;8.46;3.78;;;;;;;23.53;55.31;99465.38;367079;109;1963052;-73
2021/06/20 05:09:09;;;;;;;6.94;2.60;;;;;;;23.65;55.09;99452.77;391972;106;1987045;-73
2021/06/20 05:10:22;;;;;;;8.67;2.24;;;;;;;23.70;55.06;99462.91;356062;106;2605987;-74
2021/06/20 05:11:46;;;;;;;6.54;2.37;;;;;;;23.64;54.88;99458.59;373045;107;1962043;-71
2021/06/20 05:12:58;;;;;;;7.62;2.39;;;;;;;23.73;54.92;99444.98;386606;106;1967071;-73
2021/06/20 05:14:04;;;;;;;7.16;2.51;;;;;;;23.71;54.78;99456.30;366932;109;1962102;-73
2021/06/20 05:15:27;;;;;;;6.52;2.44;;;;;;;23.79;54.79;99455.65;364548;110;1961984;-72
2021/06/20 05:16:59;;;;;;;6.83;2.55;;;;;;;24.09;54.22;99457.10;384449;99;1988035;-73
2021/06/20 05:18:05;;;;;;;7.99;2.37;;;;;;;24.05;53.88;99456.05;377571;101;1960643;-73
2021/06/20 05:19:19;;;;;;;6.86;2.37;;;;;;;24.26;53.49;99458.48;384618;106;1985932;-73
2021/06/20 05:20:25;;;;;;;5.96;2.36;;;;;;;24.22;53.31;99449.19;302300;112;2284062;-71
2021/06/20 05:21:48;;;;;;;8.72;2.36;;;;;;;24.27;53.06;99457.38;363754;109;1963036;-71
2021/06/20 05:22:54;;;;;;;6.04;2.44;;;;;;;24.35;53.08;99451.17;365286;109;1961854;-73
2021/06/20 05:24:27;;;;;;;7.13;2.14;;;;;;;24.63;52.65;99454.82;395818;104;1962110;-73
2021/06/20 05:25:32;;;;;;;7.36;2.34;;;;;;;24.59;52.37;99456.57;366048;107;1970052;-72
2021/06/20 05:26:48;;;;;;;7.76;2.46;;;;;;;24.84;51.85;99458.02;353217;101;2515998;-72
2021/06/20 05:27:53;;;;;;;7.79;2.82;;;;;;;24.82;51.81;99457.50;379258;104;1963962;-74
2021/06/20 05:29:17;;;;;;;5.61;2.33;;;;;;;24.90;51.69;99454.05;377005;105;1962923;-73
2021/06/20 05:30:30;;;;;;;9.73;2.46;;;;;;;25.16;51.41;99454.36;393965;104;1973024;-73
2021/06/20 05:31:35;;;;;;;7.66;2.61;;;;;;;25.11;51.44;99448.09;376515;106;1962753;-72